Time;durP1;ratioP1;P1;durP2;ratioP2;P2;SDS_P1;SDS_P2;PMS_P1;PMS_P2;Temp;Humidity;BMP_temperature;BMP_pressure;BME280_temperature;BME280_humidity;BME280_pressure;Samples;Min_cycle;Max_cycle;Signal;HPM_P1;HPM_P2
2022/03/20 00:00:53;;;;;;;29.10;19.75;;;4.60;69.70;;;;;;5006322;28;20069;-50
2022/03/20 00:03:37;;;;;;;28.90;19.35;;;4.70;69.80;;;;;;4992995;28;20398;-50
2022/03/20 00:06:22;;;;;;;27.92;20.42;;;4.60;70.00;;;;;;4992884;28;20553;-53
2022/03/20 00:09:06;;;;;;;27.10;20.13;;;4.60;70.20;;;;;;4992600;28;20057;-50
2022/03/20 00:11:50;;;;;;;27.55;19.75;;;4.50;70.20;;;;;;4991968;28;20089;-51
2022/03/20 00:14:34;;;;;;;27.58;21.30;;;4.50;70.40;;;;;;4992115;28;20065;-55
2022/03/20 00:17:20;;;;;;;26.13;20.00;;;4.40;70.70;;;;;;5004919;28;20045;-49
2022/03/20 00:20:05;;;;;;;30.25;19.85;;;4.50;70.60;;;;;;4992918;28;20166;-48
2022/03/20 00:22:49;;;;;;;;;;;4.40;70.90;;;;;;4988879;28;20165;-49
2022/03/20 00:25:34;;;;;;;29.17;20.10;;;4.30;71.30;;;;;;4993065;28;20550;-48
2022/03/20 00:28:20;;;;;;;29.60;21.75;;;4.20;71.70;;;;;;4992973;28;20100;-51
2022/03/20 00:31:04;;;;;;;28.30;20.13;;;4.20;71.90;;;;;;4993407;28;20417;-53
2022/03/20 00:33:48;;;;;;;31.48;22.23;;;4.20;71.90;;;;;;4991614;28;20076;-54
2022/03/20 00:36:35;;;;;;;34.50;20.58;;;4.20;71.70;;;;;;4990002;28;20508;-53
2022/03/20 00:39:20;;;;;;;30.52;21.23;;;4.20;71.90;;;;;;4997188;28;20045;-54
2022/03/20 00:42:04;;;;;;;34.15;22.17;;;4.10;71.90;;;;;;4986160;28;20048;-55
2022/03/20 00:44:48;;;;;;;33.28;20.17;;;4.00;72.00;;;;;;4997131;28;20085;-53
2022/03/20 00:47:32;;;;;;;30.95;22.23;;;4.00;72.10;;;;;;4977392;28;20038;-54
2022/03/20 00:50:16;;;;;;;29.05;21.02;;;4.00;72.20;;;;;;4991036;28;20070;-52
2022/03/20 00:53:00;;;;;;;32.58;21.90;;;4.00;72.20;;;;;;4995750;28;20053;-52
2022/03/20 00:55:44;;;;;;;29.38;21.02;;;4.00;72.40;;;;;;4997391;28;20092;-53
2022/03/20 00:58:28;;;;;;;32.45;21.73;;;4.00;72.20;;;;;;4997318;28;20040;-52
2022/03/20 01:01:14;;;;;;;30.83;20.00;;;3.90;72.60;;;;;;4997230;28;20202;-50
2022/03/20 01:03:58;;;;;;;31.50;21.13;;;3.90;72.60;;;;;;4996234;28;20084;-51
2022/03/20 01:06:42;;;;;;;29.13;20.83;;;3.90;72.60;;;;;;4995458;28;20523;-51
2022/03/20 01:09:26;;;;;;;39.42;22.55;;;3.90;72.40;;;;;;4996611;28;20084;-49
2022/03/20 01:12:11;;;;;;;29.02;20.95;;;3.80;72.50;;;;;;4995564;28;20041;-52
2022/03/20 01:14:55;;;;;;;31.08;20.98;;;3.80;72.80;;;;;;4976743;28;20193;-51
2022/03/20 01:17:39;;;;;;;32.13;21.33;;;3.80;72.50;;;;;;4996413;28;20045;-51
2022/03/20 01:20:23;;;;;;;33.13;21.40;;;3.90;73.20;;;;;;4995095;28;20069;-52
2022/03/20 01:23:08;;;;;;;29.85;21.33;;;3.90;72.40;;;;;;4994960;28;20117;-52
2022/03/20 01:25:53;;;;;;;38.47;22.85;;;3.80;72.50;;;;;;4996402;28;20046;-51
2022/03/20 01:28:37;;;;;;;30.80;20.95;;;3.90;72.20;;;;;;4995348;28;20046;-51
2022/03/20 01:31:21;;;;;;;30.77;22.17;;;3.90;72.40;;;;;;4996556;28;20525;-52
2022/03/20 01:34:06;;;;;;;33.08;21.92;;;3.80;72.40;;;;;;4996518;28;20285;-49
2022/03/20 01:36:50;;;;;;;33.40;22.80;;;3.80;72.60;;;;;;4995472;28;20046;-48
2022/03/20 01:39:34;;;;;;;34.65;22.05;;;3.80;72.50;;;;;;4994716;28;20116;-53
2022/03/20 01:42:20;;;;;;;33.33;21.80;;;3.80;72.80;;;;;;5007500;28;20049;-53
2022/03/20 01:45:15;;;;;;;31.77;21.35;;;3.80;72.60;;;;;;4993688;28;20069;-57
2022/03/20 01:48:00;;;;;;;32.53;22.75;;;3.80;72.70;;;;;;4993359;28;20084;-55
2022/03/20 01:50:44;;;;;;;29.13;21.23;;;3.80;72.60;;;;;;4994400;28;20121;-48
2022/03/20 01:53:29;;;;;;;29.27;21.95;;;3.70;72.80;;;;;;4993169;28;20034;-47
2022/03/20 01:56:13;;;;;;;31.20;21.70;;;3.70;73.00;;;;;;4994694;28;20048;-47
2022/03/20 01:58:59;;;;;;;30.17;21.95;;;3.70;73.00;;;;;;4993989;28;20042;-48
2022/03/20 02:01:43;;;;;;;33.53;22.67;;;3.70;73.00;;;;;;4994726;28;20069;-48
2022/03/20 02:04:27;;;;;;;30.80;22.80;;;3.70;73.00;;;;;;4993827;28;20038;-48
2022/03/20 02:07:13;;;;;;;32.75;22.83;;;3.60;73.10;;;;;;4994791;28;20524;-49
2022/03/20 02:09:57;;;;;;;34.05;23.30;;;3.70;73.20;;;;;;4978268;28;20441;-54
2022/03/20 02:12:43;;;;;;;31.60;22.20;;;3.60;73.30;;;;;;4993214;28;20033;-53
2022/03/20 02:15:27;;;;;;;31.98;22.45;;;3.60;73.30;;;;;;4993832;28;20038;-54
2022/03/20 02:18:11;;;;;;;33.30;22.52;;;3.50;73.50;;;;;;4993951;28;20036;-53
2022/03/20 02:20:57;;;;;;;32.58;22.48;;;3.60;73.50;;;;;;4993705;28;20030;-54
2022/03/20 02:23:42;;;;;;;33.15;21.50;;;3.50;73.50;;;;;;4992636;28;20092;-49
2022/03/20 02:26:27;;;;;;;30.92;21.45;;;3.50;73.50;;;;;;4994254;28;20037;-51
2022/03/20 02:29:11;;;;;;;37.83;21.90;;;3.50;73.70;;;;;;4993965;28;20037;-49
2022/03/20 02:31:55;;;;;;;32.67;22.90;;;3.40;73.70;;;;;;4980399;28;20037;-51
2022/03/20 02:34:40;;;;;;;33.55;22.75;;;3.50;74.00;;;;;;4993431;28;20068;-52
2022/03/20 02:37:25;;;;;;;31.38;21.42;;;3.40;74.20;;;;;;4979116;28;20041;-52
2022/03/20 02:40:09;;;;;;;33.58;22.63;;;3.30;74.30;;;;;;4994364;28;20513;-50
2022/03/20 02:42:54;;;;;;;31.65;21.60;;;3.30;74.40;;;;;;4988596;28;20065;-48
2022/03/20 02:45:39;;;;;;;39.42;23.30;;;3.40;74.30;;;;;;4994358;28;20486;-50
2022/03/20 02:48:23;;;;;;;30.27;21.73;;;3.40;74.00;;;;;;4993960;28;20044;-47
2022/03/20 02:51:07;;;;;;;33.10;22.98;;;3.50;74.00;;;;;;4994653;28;20037;-50
2022/03/20 02:53:51;;;;;;;34.95;22.23;;;3.40;74.30;;;;;;4990637;28;20607;-48
2022/03/20 02:56:35;;;;;;;38.10;23.23;;;3.30;74.80;;;;;;4992083;28;20410;-51
2022/03/20 02:59:19;;;;;;;33.13;23.05;;;3.30;74.60;;;;;;5004560;28;20061;-51
2022/03/20 03:02:03;;;;;;;32.85;21.08;;;3.20;74.80;;;;;;4991719;28;20120;-48
2022/03/20 03:04:47;;;;;;;38.58;23.17;;;3.20;74.80;;;;;;4992108;28;20033;-52
2022/03/20 03:10:55;;;;;;;33.40;22.38;;;3.20;75.00;;;;;;4993260;28;20122;-52
2022/03/20 03:11:01;;;;;;;36.83;23.55;;;3.20;75.20;;;;;;4992637;28;20097;-50
2022/03/20 03:13:47;;;;;;;36.30;22.67;;;3.10;75.50;;;;;;4991360;28;20393;-51
2022/03/20 03:16:31;;;;;;;37.78;23.77;;;3.10;75.50;;;;;;4993675;28;20053;-53
2022/03/20 03:19:15;;;;;;;35.70;23.10;;;3.10;75.50;;;;;;4993598;28;20114;-51
2022/03/20 03:22:01;;;;;;;34.30;22.88;;;3.00;75.50;;;;;;4993062;28;20446;-52
2022/03/20 03:24:45;;;;;;;32.75;21.77;;;3.10;75.30;;;;;;4993018;28;20520;-50
2022/03/20 03:27:29;;;;;;;37.50;23.13;;;3.00;75.50;;;;;;4992162;28;20084;-50
2022/03/20 03:30:14;;;;;;;36.22;23.20;;;3.10;75.40;;;;;;4993478;28;20092;-48
2022/03/20 03:33:00;;;;;;;;;;;3.00;75.50;;;;;;4992583;28;20072;-48
2022/03/20 03:35:53;;;;;;;34.25;22.23;;;3.00;75.70;;;;;;4992565;28;20046;-50
2022/03/20 03:38:37;;;;;;;34.65;22.50;;;3.00;75.60;;;;;;4992725;28;20076;-52
2022/03/20 03:41:23;;;;;;;34.70;22.90;;;3.00;75.60;;;;;;4979587;28;20120;-52
2022/03/20 03:44:08;;;;;;;36.33;22.92;;;2.80;76.00;;;;;;4991669;28;20037;-49
2022/03/20 03:46:57;;;;;;;35.78;22.48;;;2.90;75.80;;;;;;4993076;28;20137;-49
2022/03/20 03:49:41;;;;;;;34.75;22.20;;;2.90;76.00;;;;;;4992031;28;20522;-51
2022/03/20 03:52:25;;;;;;;32.70;22.02;;;2.90;75.70;;;;;;4992698;28;20049;-47
2022/03/20 03:55:10;;;;;;;35.13;22.45;;;2.80;76.10;;;;;;4993879;28;20512;-52
2022/03/20 03:57:54;;;;;;;38.53;23.30;;;2.90;76.10;;;;;;4991815;28;20580;-49
2022/03/20 04:00:38;;;;;;;31.90;20.77;;;2.80;76.00;;;;;;5005520;28;20513;-49
2022/03/20 04:03:22;;;;;;;32.88;22.05;;;2.90;76.10;;;;;;4992032;28;20050;-51
2022/03/20 04:06:08;;;;;;;36.60;23.15;;;2.80;76.20;;;;;;4992612;28;20085;-49
2022/03/20 04:08:53;;;;;;;34.95;21.85;;;2.90;75.60;;;;;;4992749;28;20084;-50
2022/03/20 04:11:38;;;;;;;36.25;22.25;;;2.80;75.80;;;;;;4992806;28;20549;-52
2022/03/20 04:14:22;;;;;;;32.80;22.33;;;2.90;75.80;;;;;;4991892;28;20130;-51
2022/03/20 04:17:06;;;;;;;34.28;23.00;;;2.80;75.90;;;;;;4993045;28;20518;-53
2022/03/20 04:19:50;;;;;;;35.53;22.35;;;2.80;75.90;;;;;;4992021;28;20085;-48
2022/03/20 04:22:36;;;;;;;32.40;22.13;;;2.90;75.80;;;;;;4991901;28;20058;-52
2022/03/20 04:25:20;;;;;;;35.67;23.02;;;2.90;75.70;;;;;;5006176;28;20049;-51
2022/03/20 04:28:05;;;;;;;38.08;23.25;;;2.90;75.70;;;;;;4993477;28;20048;-49
2022/03/20 04:30:50;;;;;;;;;;;3.00;75.70;;;;;;4977557;28;20037;-52
2022/03/20 04:33:34;;;;;;;34.47;22.05;;;3.00;75.40;;;;;;4991936;28;19971;-53
2022/03/20 04:36:22;;;;;;;32.87;21.40;;;2.90;75.40;;;;;;4980336;28;20454;-53
2022/03/20 04:39:07;;;;;;;33.65;22.27;;;2.90;75.60;;;;;;4991682;28;20077;-47
2022/03/20 04:41:51;;;;;;;31.55;21.70;;;2.90;75.70;;;;;;4983200;28;20073;-51
2022/03/20 04:44:39;;;;;;;37.75;21.55;;;2.80;75.60;;;;;;4990168;28;20110;-50
2022/03/20 04:59:36;;;;;;;33.13;20.40;;;2.70;76.00;;;;;;4991453;28;20068;-53
2022/03/20 05:02:20;;;;;;;32.22;21.23;;;2.90;75.50;;;;;;5004510;28;20046;-52
2022/03/20 05:05:05;;;;;;;30.13;20.58;;;2.80;75.90;;;;;;4991895;28;20049;-49
2022/03/20 05:07:49;;;;;;;38.88;21.60;;;2.80;75.90;;;;;;4990677;28;20033;-53
2022/03/20 05:13:36;;;;;;;31.30;21.23;;;2.80;76.00;;;;;;4988442;28;20406;-49
2022/03/20 05:16:21;;;;;;;28.77;20.27;;;2.80;76.20;;;;;;4988649;28;20041;-48
2022/03/20 05:19:05;;;;;;;35.67;21.58;;;2.80;76.30;;;;;;4988801;28;20096;-51
2022/03/20 05:21:49;;;;;;;36.40;22.50;;;2.80;76.30;;;;;;4988737;28;20056;-50
2022/03/20 05:24:34;;;;;;;30.40;20.95;;;2.80;76.40;;;;;;4994068;28;20034;-50
2022/03/20 05:27:18;;;;;;;;;;;2.70;76.90;;;;;;4992594;28;20057;-54
2022/03/20 05:30:05;;;;;;;36.15;22.85;;;2.70;77.20;;;;;;4992875;28;20373;-49
2022/03/20 05:32:50;;;;;;;39.40;22.35;;;2.70;77.40;;;;;;4993183;28;20038;-53
2022/03/20 05:35:34;;;;;;;32.75;20.45;;;2.60;77.70;;;;;;4992515;28;20589;-47
2022/03/20 05:38:18;;;;;;;34.10;21.23;;;2.60;78.00;;;;;;4994109;28;20108;-48
2022/03/20 05:44:05;;;;;;;37.97;22.13;;;2.70;78.10;;;;;;4983542;28;20185;-49
2022/03/20 05:46:50;;;;;;;33.75;21.48;;;2.70;78.10;;;;;;4991513;28;20424;-52
2022/03/20 05:49:35;;;;;;;30.83;21.05;;;2.70;78.00;;;;;;4990158;28;20045;-51
2022/03/20 05:52:19;;;;;;;31.90;20.92;;;2.70;78.30;;;;;;4991394;28;20517;-49
2022/03/20 05:55:05;;;;;;;31.50;21.10;;;2.80;78.00;;;;;;4993233;28;20130;-50
2022/03/20 05:58:01;;;;;;;35.75;21.15;;;2.80;78.10;;;;;;4993388;28;20073;-52
2022/03/20 06:00:45;;;;;;;33.60;22.65;;;2.70;78.30;;;;;;4987898;28;20080;-51
2022/03/20 06:03:30;;;;;;;38.08;22.88;;;2.70;78.70;;;;;;4991001;28;20045;-54
2022/03/20 06:06:14;;;;;;;32.03;21.20;;;2.60;78.90;;;;;;5004649;28;20033;-52
2022/03/20 06:08:58;;;;;;;35.58;22.38;;;2.70;78.90;;;;;;4990932;28;20064;-53
2022/03/20 06:11:42;;;;;;;34.67;22.10;;;2.70;78.70;;;;;;4992877;28;20162;-52
2022/03/20 06:14:27;;;;;;;33.80;22.00;;;2.70;78.90;;;;;;4991006;28;20905;-53
2022/03/20 06:17:13;;;;;;;33.78;21.35;;;2.80;78.80;;;;;;4992480;28;20061;-50
2022/03/20 06:20:00;;;;;;;38.42;21.90;;;2.80;78.40;;;;;;4989846;28;20080;-52
2022/03/20 06:22:45;;;;;;;33.58;21.30;;;2.80;78.50;;;;;;4988964;28;20146;-48
2022/03/20 06:25:29;;;;;;;35.60;21.55;;;2.80;78.70;;;;;;4993013;28;20112;-51
2022/03/20 06:28:13;;;;;;;31.13;19.85;;;2.90;78.90;;;;;;4989088;28;20049;-52
2022/03/20 06:30:57;;;;;;;34.38;21.52;;;2.90;78.80;;;;;;4991012;28;20037;-54
2022/03/20 06:33:43;;;;;;;34.28;21.80;;;2.90;78.60;;;;;;4982358;28;20057;-50
2022/03/20 06:36:28;;;;;;;35.15;20.83;;;3.00;78.60;;;;;;4993148;28;20032;-53
2022/03/20 06:39:13;;;;;;;37.03;21.77;;;3.00;78.20;;;;;;4992064;28;20037;-50
2022/03/20 06:41:57;;;;;;;32.70;21.85;;;3.10;78.00;;;;;;4983882;28;20037;-51
2022/03/20 06:44:41;;;;;;;32.40;21.92;;;3.20;77.90;;;;;;4995261;28;20057;-51
2022/03/20 06:47:26;;;;;;;33.70;22.15;;;3.30;77.40;;;;;;4992510;28;20121;-49
2022/03/20 06:50:12;;;;;;;;;;;3.40;77.10;;;;;;4993796;28;20085;-49
2022/03/20 06:53:02;;;;;;;35.13;21.67;;;3.50;76.80;;;;;;4992588;28;20056;-51
2022/03/20 06:55:46;;;;;;;34.92;20.80;;;3.60;77.00;;;;;;4993361;28;20037;-52
2022/03/20 06:58:30;;;;;;;31.77;22.00;;;3.60;76.90;;;;;;4993564;28;20033;-48
2022/03/20 07:01:14;;;;;;;30.45;21.63;;;3.70;76.40;;;;;;5003020;28;20092;-49
2022/03/20 07:03:58;;;;;;;33.33;21.73;;;3.80;76.70;;;;;;4988553;28;20078;-49
2022/03/20 07:06:42;;;;;;;33.13;21.67;;;3.90;76.60;;;;;;4990309;28;20041;-51
2022/03/20 07:09:27;;;;;;;34.20;21.98;;;4.00;76.50;;;;;;4980808;28;20391;-50
2022/03/20 07:12:12;;;;;;;36.05;21.35;;;4.10;76.30;;;;;;4977877;28;20447;-50
2022/03/20 07:14:57;;;;;;;;;;;4.10;76.10;;;;;;4973234;28;20411;-50
2022/03/20 07:17:41;;;;;;;36.58;22.40;;;4.20;76.00;;;;;;4983966;28;20030;-51
2022/03/20 07:20:26;;;;;;;33.17;21.17;;;4.20;75.50;;;;;;4986730;28;20077;-49
2022/03/20 07:23:10;;;;;;;31.30;20.97;;;4.30;75.30;;;;;;4992179;28;20124;-50
2022/03/20 07:32:06;;;;;;;30.95;20.40;;;4.60;74.40;;;;;;4992922;28;20081;-53
2022/03/20 07:34:50;;;;;;;32.55;21.58;;;4.70;74.00;;;;;;4985819;28;20383;-48
2022/03/20 07:37:35;;;;;;;30.23;21.20;;;4.80;73.80;;;;;;4975324;28;20046;-55
2022/03/20 07:40:19;;;;;;;33.53;21.83;;;5.00;73.50;;;;;;4977144;28;20053;-55
2022/03/20 07:43:03;;;;;;;35.45;21.98;;;5.00;73.60;;;;;;4992346;28;20181;-52
2022/03/20 07:45:47;;;;;;;29.70;21.42;;;5.00;73.70;;;;;;4990029;28;20033;-52
2022/03/20 07:48:31;;;;;;;30.65;20.20;;;5.20;73.10;;;;;;4989468;28;20453;-50
2022/03/20 07:51:17;;;;;;;34.92;21.65;;;5.20;73.20;;;;;;4987677;28;20085;-50
2022/03/20 07:54:02;;;;;;;31.83;21.70;;;5.30;73.40;;;;;;4993183;28;20077;-52
2022/03/20 07:56:46;;;;;;;30.08;20.98;;;5.40;72.90;;;;;;4991869;28;20041;-51
2022/03/20 07:59:30;;;;;;;32.80;20.90;;;5.60;72.40;;;;;;4992093;28;20037;-53
2022/03/20 08:02:15;;;;;;;29.67;19.85;;;5.60;72.00;;;;;;5005724;28;20124;-50
2022/03/20 08:04:59;;;;;;;30.52;20.95;;;5.80;72.00;;;;;;5006058;28;20157;-51
2022/03/20 08:07:44;;;;;;;28.83;21.35;;;5.90;71.80;;;;;;4992526;28;20046;-51
2022/03/20 08:10:29;;;;;;;30.85;19.77;;;5.90;71.40;;;;;;4992422;28;20450;-58
2022/03/20 08:13:13;;;;;;;31.95;20.30;;;6.00;71.10;;;;;;4992657;28;20025;-52
2022/03/20 08:15:58;;;;;;;27.50;19.48;;;6.10;70.80;;;;;;4991640;28;20045;-50
2022/03/20 08:18:45;;;;;;;28.95;20.00;;;6.30;70.80;;;;;;4992606;28;20061;-54
2022/03/20 08:21:29;;;;;;;32.22;20.40;;;6.40;70.40;;;;;;4990267;28;20037;-49
2022/03/20 08:24:14;;;;;;;28.70;20.92;;;6.50;69.90;;;;;;4986494;28;20419;-49
2022/03/20 08:26:58;;;;;;;;;;;6.60;69.70;;;;;;4992230;28;20097;-56
2022/03/20 08:29:42;;;;;;;32.13;20.30;;;6.70;69.30;;;;;;4990743;28;19983;-51
2022/03/20 08:32:27;;;;;;;30.60;20.40;;;6.80;68.70;;;;;;4991548;28;20101;-53
2022/03/20 08:35:14;;;;;;;27.70;19.27;;;6.90;68.70;;;;;;4982490;28;20045;-54
2022/03/20 08:37:58;;;;;;;30.48;19.52;;;6.90;68.50;;;;;;4982983;28;20670;-53
2022/03/20 08:40:42;;;;;;;28.50;20.38;;;7.20;67.90;;;;;;4992213;28;20109;-52
2022/03/20 08:43:26;;;;;;;29.10;19.42;;;7.10;68.20;;;;;;4983646;28;20132;-52
2022/03/20 08:46:10;;;;;;;32.55;19.83;;;7.20;68.10;;;;;;4993178;28;20089;-52
2022/03/20 08:48:54;;;;;;;27.63;19.55;;;7.30;68.00;;;;;;4990608;28;20561;-57
2022/03/20 08:51:39;;;;;;;29.20;20.38;;;7.40;67.70;;;;;;4991561;28;20061;-53
2022/03/20 08:54:23;;;;;;;29.23;20.08;;;7.60;67.50;;;;;;4992580;28;20117;-52
2022/03/20 08:57:08;;;;;;;27.23;19.83;;;7.70;67.30;;;;;;4987900;28;20090;-53
2022/03/20 08:59:54;;;;;;;;;;;7.80;66.30;;;;;;4986605;28;20037;-62
2022/03/20 09:02:38;;;;;;;30.65;20.98;;;7.90;66.30;;;;;;4992849;28;19925;-54
2022/03/20 09:05:23;;;;;;;28.10;18.65;;;7.80;66.40;;;;;;4985491;28;20061;-53
2022/03/20 09:08:07;;;;;;;26.00;18.08;;;7.90;65.30;;;;;;4990458;28;20050;-54
2022/03/20 09:10:51;;;;;;;27.67;20.13;;;8.10;65.20;;;;;;4987108;28;20045;-52
2022/03/20 09:13:35;;;;;;;24.27;18.10;;;8.10;64.90;;;;;;4993967;28;20066;-50
2022/03/20 09:19:23;;;;;;;26.73;18.40;;;8.40;63.80;;;;;;4994956;28;20085;-52
2022/03/20 09:22:07;;;;;;;26.35;19.30;;;8.40;63.50;;;;;;4981198;28;20443;-52
2022/03/20 09:24:51;;;;;;;27.23;17.87;;;8.50;62.80;;;;;;4995195;28;20173;-54
2022/03/20 09:27:35;;;;;;;22.60;17.23;;;8.50;61.70;;;;;;4995267;28;20107;-52
2022/03/20 09:30:23;;;;;;;25.05;17.50;;;8.60;61.80;;;;;;4975114;28;20093;-55
2022/03/20 09:33:08;;;;;;;28.27;18.42;;;8.70;62.20;;;;;;4978286;28;20088;-52
2022/03/20 09:35:52;;;;;;;27.27;18.65;;;8.80;60.70;;;;;;4995447;28;20032;-52
2022/03/20 09:38:38;;;;;;;24.07;17.63;;;8.90;61.40;;;;;;4995301;28;20093;-54
2022/03/20 09:41:31;;;;;;;24.50;17.60;;;8.90;61.30;;;;;;4980783;28;20040;-54
2022/03/20 09:44:17;;;;;;;24.42;17.95;;;9.00;61.20;;;;;;4993794;28;20084;-56
2022/03/20 09:47:02;;;;;;;22.42;17.35;;;9.00;62.10;;;;;;4994856;28;20045;-54
2022/03/20 09:49:47;;;;;;;29.73;18.17;;;9.10;61.80;;;;;;4992516;28;20084;-54
2022/03/20 09:52:32;;;;;;;;;;;9.30;61.60;;;;;;4986090;28;20069;-55
2022/03/20 09:55:16;;;;;;;25.92;18.00;;;9.30;61.30;;;;;;5006449;28;20397;-51
2022/03/20 09:58:01;;;;;;;23.23;17.65;;;9.20;61.40;;;;;;4995153;28;20049;-51
2022/03/20 10:00:45;;;;;;;25.30;17.98;;;9.20;61.60;;;;;;4993757;28;20050;-56
2022/03/20 10:03:29;;;;;;;21.20;18.05;;;9.30;61.30;;;;;;4994116;28;20041;-53
2022/03/20 10:06:17;;;;;;;22.93;18.23;;;9.50;60.90;;;;;;4994786;28;20033;-51
2022/03/20 10:09:10;;;;;;;24.70;18.88;;;9.60;60.60;;;;;;5006040;28;20045;-53
2022/03/20 10:11:57;;;;;;;24.75;17.08;;;9.70;59.80;;;;;;4995205;28;20118;-54
2022/03/20 10:14:49;;;;;;;26.08;16.92;;;9.80;59.50;;;;;;4994501;28;20561;-54
2022/03/20 10:17:33;;;;;;;24.40;16.13;;;9.80;58.90;;;;;;5007029;28;20041;-52
2022/03/20 10:20:20;;;;;;;23.58;15.55;;;9.90;58.30;;;;;;4991253;28;20112;-55
2022/03/20 10:23:25;;;;;;;21.48;15.93;;;9.80;57.20;;;;;;4987306;28;20450;-52
2022/03/20 10:26:10;;;;;;;21.35;15.48;;;10.10;57.90;;;;;;4988364;28;20034;-52
2022/03/20 10:28:55;;;;;;;23.98;15.82;;;10.10;56.70;;;;;;4992873;28;20037;-52
2022/03/20 10:31:50;;;;;;;18.73;14.88;;;10.30;57.00;;;;;;4987799;28;20561;-52
2022/03/20 10:34:51;;;;;;;22.45;15.02;;;10.30;56.00;;;;;;4989636;28;20052;-54
2022/03/20 10:37:55;;;;;;;22.92;15.73;;;10.40;56.40;;;;;;4989317;28;20072;-52
2022/03/20 10:40:46;;;;;;;18.85;15.38;;;10.50;56.50;;;;;;4991147;28;20068;-53
2022/03/20 10:43:30;;;;;;;23.48;15.38;;;10.60;55.90;;;;;;4991713;28;20033;-54
2022/03/20 10:46:38;;;;;;;22.45;15.70;;;10.60;55.60;;;;;;4990212;28;20046;-53
2022/03/20 10:49:22;;;;;;;20.95;15.45;;;10.70;55.80;;;;;;4987410;28;20042;-52
2022/03/20 10:52:17;;;;;;;19.40;15.70;;;10.70;54.90;;;;;;4987074;28;20037;-54
2022/03/20 10:55:07;;;;;;;19.65;15.93;;;10.80;55.60;;;;;;4984722;28;20570;-55
2022/03/20 10:57:51;;;;;;;20.63;14.90;;;10.80;55.00;;;;;;5005565;28;20041;-53
2022/03/20 11:00:46;;;;;;;18.90;15.07;;;10.90;55.40;;;;;;4990473;28;20097;-53
2022/03/20 11:03:33;;;;;;;18.85;14.77;;;11.00;55.10;;;;;;4992326;28;20437;-51
2022/03/20 11:06:17;;;;;;;18.65;14.63;;;11.10;55.00;;;;;;4993462;28;20050;-57
2022/03/20 11:09:04;;;;;;;18.55;14.70;;;11.20;55.20;;;;;;4997559;28;20118;-54
2022/03/20 11:11:51;;;;;;;18.20;14.80;;;11.40;54.90;;;;;;4992347;28;20445;-55
2022/03/20 11:14:37;;;;;;;22.05;13.52;;;11.40;54.80;;;;;;5004491;28;20034;-53
2022/03/20 11:17:26;;;;;;;20.73;14.30;;;11.60;56.50;;;;;;5007150;28;20041;-55
2022/03/20 11:20:12;;;;;;;18.63;12.75;;;11.90;53.90;;;;;;4992462;28;20045;-60
2022/03/20 11:22:59;;;;;;;22.13;12.88;;;12.20;53.40;;;;;;4991066;28;20053;-52
2022/03/20 11:25:45;;;;;;;17.25;11.73;;;12.30;50.70;;;;;;4993528;28;20445;-54
2022/03/20 11:28:45;;;;;;;15.85;12.82;;;12.50;49.00;;;;;;4994584;28;20462;-60
2022/03/20 11:31:37;;;;;;;18.70;12.05;;;12.70;50.00;;;;;;4993531;28;20106;-57
2022/03/20 11:34:22;;;;;;;23.08;13.23;;;12.90;49.50;;;;;;4988421;28;20037;-56
2022/03/20 11:37:09;;;;;;;15.13;12.45;;;12.90;49.60;;;;;;4987922;28;20517;-54
2022/03/20 11:40:15;;;;;;;15.82;13.20;;;13.10;48.40;;;;;;4987839;28;20053;-57
2022/03/20 11:43:13;;;;;;;14.38;12.13;;;13.20;47.30;;;;;;4985651;28;20542;-54
2022/03/20 11:46:14;;;;;;;15.65;12.52;;;12.90;48.60;;;;;;4986814;28;20037;-55
2022/03/20 11:49:17;;;;;;;17.80;12.70;;;12.90;47.60;;;;;;4990716;28;20512;-54
2022/03/20 11:52:13;;;;;;;43.38;13.30;;;12.80;47.40;;;;;;4992317;28;20390;-55
2022/03/20 11:54:57;;;;;;;20.15;11.90;;;12.70;46.60;;;;;;4989861;28;20113;-53
2022/03/20 11:57:42;;;;;;;21.40;11.77;;;12.60;46.40;;;;;;4990697;28;20077;-56
2022/03/20 12:00:28;;;;;;;14.80;10.67;;;12.60;47.30;;;;;;4990834;28;20147;-54
2022/03/20 12:03:15;;;;;;;16.27;10.68;;;12.60;47.50;;;;;;4992644;28;20040;-49
2022/03/20 12:06:19;;;;;;;19.40;11.52;;;12.50;45.60;;;;;;4985423;28;20029;-54
2022/03/20 12:09:25;;;;;;;14.05;11.07;;;12.70;45.60;;;;;;4994723;28;20458;-54
2022/03/20 12:12:37;;;;;;;15.30;9.75;;;12.70;45.70;;;;;;4983051;28;20046;-52
2022/03/20 12:15:25;;;;;;;13.95;10.18;;;12.70;44.60;;;;;;4989756;28;20034;-50
2022/03/20 12:18:11;;;;;;;16.40;10.25;;;12.70;45.40;;;;;;4991094;28;20133;-56
2022/03/20 12:21:02;;;;;;;19.60;11.07;;;12.70;44.90;;;;;;4991427;28;20033;-55
2022/03/20 12:23:47;;;;;;;16.60;11.30;;;12.80;45.60;;;;;;4992535;28;20722;-55
2022/03/20 12:26:41;;;;;;;12.38;10.18;;;12.80;46.10;;;;;;4993625;28;20051;-52
2022/03/20 12:29:32;;;;;;;18.75;11.73;;;12.90;45.00;;;;;;4993568;28;20057;-51
2022/03/20 12:32:18;;;;;;;23.45;15.27;;;12.90;45.40;;;;;;4995988;28;20537;-51
2022/03/20 12:35:06;;;;;;;12.88;10.68;;;13.10;44.40;;;;;;4996923;28;20065;-54
2022/03/20 12:37:52;;;;;;;16.67;10.45;;;13.10;44.70;;;;;;4997928;28;20509;-52
2022/03/20 12:40:36;;;;;;;17.33;10.93;;;13.10;45.20;;;;;;4997152;28;20100;-52
2022/03/20 12:43:20;;;;;;;15.82;12.25;;;13.30;44.60;;;;;;4977053;28;20105;-56
2022/03/20 12:46:08;;;;;;;13.45;10.70;;;13.30;44.90;;;;;;4996696;28;20045;-55
2022/03/20 12:48:54;;;;;;;14.40;10.65;;;13.40;45.30;;;;;;4997026;28;20449;-51
2022/03/20 12:51:40;;;;;;;14.48;11.57;;;13.30;44.30;;;;;;4996257;28;20041;-49
2022/03/20 12:54:25;;;;;;;12.63;11.30;;;13.40;44.90;;;;;;4994995;28;20045;-54
2022/03/20 12:57:09;;;;;;;14.45;11.10;;;13.50;44.60;;;;;;4996716;28;20042;-51
2022/03/20 13:00:13;;;;;;;13.70;10.93;;;13.70;44.70;;;;;;4994782;28;20065;-55
2022/03/20 13:03:11;;;;;;;16.02;11.73;;;13.80;44.40;;;;;;4995503;28;20097;-56
2022/03/20 13:05:58;;;;;;;14.45;12.20;;;13.70;45.40;;;;;;5008685;28;20041;-54
2022/03/20 13:08:46;;;;;;;13.38;11.07;;;13.80;44.60;;;;;;5005391;28;20137;-63
2022/03/20 13:11:51;;;;;;;15.48;12.00;;;14.00;44.40;;;;;;4994202;28;20085;-53
2022/03/20 13:14:48;;;;;;;15.82;12.48;;;13.90;43.80;;;;;;4992870;28;20038;-53
2022/03/20 13:17:34;;;;;;;15.13;11.50;;;13.80;44.00;;;;;;4995193;28;20066;-52
2022/03/20 13:20:21;;;;;;;15.48;12.20;;;13.60;44.50;;;;;;4987913;28;20037;-53
2022/03/20 13:23:17;;;;;;;14.35;11.65;;;13.60;44.40;;;;;;4994996;28;20053;-49
2022/03/20 13:26:02;;;;;;;13.05;11.63;;;13.70;44.50;;;;;;4995442;28;20089;-53
2022/03/20 13:28:48;;;;;;;13.10;11.68;;;13.80;44.10;;;;;;4994587;28;20037;-53
2022/03/20 13:31:32;;;;;;;14.90;11.32;;;13.90;44.00;;;;;;4989099;28;20549;-55
2022/03/20 13:34:17;;;;;;;14.93;12.32;;;13.90;44.00;;;;;;4993850;28;20486;-52
2022/03/20 13:37:06;;;;;;;15.35;12.40;;;14.00;44.50;;;;;;4995665;28;20399;-55
2022/03/20 13:39:55;;;;;;;15.02;11.93;;;13.80;44.00;;;;;;5000470;28;20565;-54
2022/03/20 13:42:41;;;;;;;17.90;12.85;;;13.90;44.40;;;;;;4992653;28;20033;-55
2022/03/20 13:45:34;;;;;;;16.70;12.77;;;14.00;44.10;;;;;;4987248;28;20093;-49
2022/03/20 13:48:22;;;;;;;15.38;13.38;;;14.00;44.20;;;;;;4992372;28;20450;-54
2022/03/20 13:51:06;;;;;;;18.00;12.02;;;14.10;44.30;;;;;;4993765;28;20030;-54
2022/03/20 13:54:12;;;;;;;15.13;12.30;;;14.30;44.10;;;;;;4991825;28;20093;-54
2022/03/20 13:57:12;;;;;;;14.57;12.02;;;14.20;44.30;;;;;;4993721;28;20065;-53
2022/03/20 14:00:16;;;;;;;17.65;13.05;;;14.30;43.90;;;;;;4975641;28;20045;-53
2022/03/20 14:03:02;;;;;;;17.63;13.40;;;14.30;43.70;;;;;;4985686;28;20093;-54
2022/03/20 14:05:52;;;;;;;17.00;13.55;;;14.50;44.60;;;;;;4993772;28;20096;-54
2022/03/20 14:08:51;;;;;;;16.92;13.30;;;14.60;43.70;;;;;;4993973;28;20230;-54
2022/03/20 14:11:38;;;;;;;13.30;11.90;;;14.70;43.60;;;;;;4992743;28;20041;-55
2022/03/20 14:14:45;;;;;;;18.65;12.75;;;14.70;43.00;;;;;;4995090;28;20060;-51
2022/03/20 14:17:50;;;;;;;16.00;12.45;;;14.60;43.10;;;;;;4993544;28;20089;-52
2022/03/20 14:20:34;;;;;;;14.18;12.07;;;14.50;43.30;;;;;;4977573;28;20082;-49
2022/03/20 14:23:19;;;;;;;18.60;12.63;;;14.50;43.30;;;;;;4989115;28;20098;-51
2022/03/20 14:26:18;;;;;;;16.65;12.43;;;14.60;43.40;;;;;;4995869;28;20053;-51
2022/03/20 14:29:06;;;;;;;15.27;11.30;;;14.80;42.90;;;;;;4995906;28;20033;-54
2022/03/20 14:41:26;;;;;;;12.63;11.18;;;15.10;42.00;;;;;;4994934;28;20136;-53
2022/03/20 14:44:16;;;;;;;14.05;11.95;;;15.00;42.30;;;;;;4995619;28;20040;-54
2022/03/20 14:47:05;;;;;;;13.70;10.68;;;15.00;42.30;;;;;;4983997;28;20042;-53
2022/03/20 14:49:50;;;;;;;13.63;11.13;;;15.10;42.30;;;;;;4994939;28;20586;-54
2022/03/20 14:52:35;;;;;;;13.13;11.20;;;15.10;41.80;;;;;;4994952;28;20122;-51